createdAt,value
2022-11-19T00:01:10.966Z,99489.13
2022-11-19T00:06:16.739Z,99483.81
2022-11-19T00:11:43.065Z,99486.09
2022-11-19T00:16:45.570Z,99491.94
2022-11-19T00:21:48.703Z,99498.28
2022-11-19T00:26:50.544Z,99504.00
2022-11-19T00:31:52.365Z,99497.75
2022-11-19T00:36:54.209Z,99509.81
2022-11-19T00:41:55.824Z,99513.09
2022-11-19T00:46:57.571Z,99517.25
2022-11-19T00:51:59.163Z,99523.25
2022-11-19T00:57:00.896Z,99520.69
2022-11-19T01:02:02.499Z,99512.78
2022-11-19T01:07:04.190Z,99513.97
2022-11-19T01:12:05.871Z,99531.03
2022-11-19T01:17:07.495Z,99540.50
2022-11-19T01:22:09.108Z,99545.19
2022-11-19T01:27:10.787Z,99542.97
2022-11-19T01:32:13.278Z,99546.53
2022-11-19T01:37:14.860Z,99542.63
2022-11-19T01:42:42.851Z,99543.94
2022-11-19T01:47:44.582Z,99551.41
2022-11-19T01:52:46.268Z,99560.78
2022-11-19T01:57:56.286Z,99568.38
2022-11-19T02:02:58.055Z,99569.00
2022-11-19T02:07:59.755Z,99569.41
2022-11-19T02:13:01.400Z,99576.88
2022-11-19T02:18:24.486Z,99580.63
2022-11-19T02:23:46.013Z,99572.72
2022-11-19T02:28:59.138Z,99571.91
2022-11-19T02:34:15.592Z,99580.88
2022-11-19T02:39:35.387Z,99582.44
2022-11-19T02:45:12.742Z,99588.91
2022-11-19T02:50:35.112Z,99588.16
2022-11-19T02:55:37.962Z,99581.50
2022-11-19T03:01:07.114Z,99575.13
2022-11-19T03:06:25.232Z,99574.06
2022-11-19T03:11:29.428Z,99585.88
2022-11-19T03:16:41.779Z,99581.88
2022-11-19T03:21:58.237Z,99582.44
2022-11-19T03:27:19.029Z,99600.75
2022-11-19T03:32:34.855Z,99601.94
2022-11-19T03:37:40.902Z,99616.84
2022-11-19T03:42:45.968Z,99617.38
2022-11-19T03:47:51.342Z,99620.56
2022-11-19T03:52:53.204Z,99627.31
2022-11-19T03:57:54.918Z,99633.91
2022-11-19T04:02:56.860Z,99633.59
2022-11-19T04:07:58.490Z,99628.53
2022-11-19T04:13:00.203Z,99628.69
2022-11-19T04:18:01.922Z,99628.97
2022-11-19T04:23:03.648Z,99622.44
2022-11-19T04:28:05.288Z,99624.09
2022-11-19T04:33:06.910Z,99631.03
2022-11-19T04:38:08.546Z,99643.31
2022-11-19T04:43:10.195Z,99637.28
2022-11-19T04:48:11.855Z,99634.47
2022-11-19T04:53:13.483Z,99637.56
2022-11-19T04:58:15.560Z,99635.84
2022-11-19T05:03:17.218Z,99639.03
2022-11-19T05:08:18.881Z,99641.16
2022-11-19T05:13:20.598Z,99642.59
2022-11-19T05:18:23.925Z,99643.38
2022-11-19T05:23:25.772Z,99644.38
2022-11-19T05:28:38.097Z,99649.34
2022-11-19T05:33:40.432Z,99653.06
2022-11-19T05:38:42.111Z,99657.84
2022-11-19T05:43:43.827Z,99666.78
2022-11-19T05:48:45.468Z,99672.97
2022-11-19T05:53:47.144Z,99662.50
2022-11-19T05:58:48.786Z,99672.66
2022-11-19T06:03:50.400Z,99673.09
2022-11-19T06:08:51.997Z,99679.28
2022-11-19T06:13:53.624Z,99686.53
2022-11-19T06:18:55.412Z,99701.53
2022-11-19T06:23:57.122Z,99698.81
2022-11-19T06:28:58.848Z,99706.13
2022-11-19T06:34:00.733Z,99713.84
2022-11-19T06:39:04.372Z,99716.06
2022-11-19T06:44:06.347Z,99722.16
2022-11-19T06:49:09.123Z,99720.44
2022-11-19T06:54:10.904Z,99722.75
2022-11-19T06:59:12.568Z,99717.66
2022-11-19T07:04:14.289Z,99723.09
2022-11-19T07:09:15.947Z,99730.22
2022-11-19T07:14:17.693Z,99733.72
2022-11-19T07:19:19.759Z,99730.56
2022-11-19T07:24:21.810Z,99733.47
2022-11-19T07:29:23.676Z,99736.34
2022-11-19T07:34:25.553Z,99732.50
2022-11-19T07:39:27.605Z,99729.19
2022-11-19T07:44:29.232Z,99718.44
2022-11-19T07:49:30.979Z,99710.03
2022-11-19T07:54:32.754Z,99709.66
2022-11-19T07:59:36.227Z,99712.53
2022-11-19T08:04:38.189Z,99724.53
2022-11-19T08:09:40.173Z,99727.50
2022-11-19T08:14:42.032Z,99741.31
2022-11-19T08:19:44.157Z,99727.03
2022-11-19T08:24:45.946Z,99726.97
2022-11-19T08:29:47.702Z,99722.06
2022-11-19T08:34:49.535Z,99730.03
2022-11-19T08:39:51.219Z,99722.34
2022-11-19T08:44:55.203Z,99724.63
2022-11-19T08:49:57.868Z,99718.44
2022-11-19T08:55:00.168Z,99718.63
2022-11-19T09:00:06.195Z,99718.25
2022-11-19T09:05:13.368Z,99710.06
2022-11-19T09:10:17.908Z,99718.22
2022-11-19T09:15:20.483Z,99727.94
2022-11-19T09:20:22.807Z,99725.13
2022-11-19T09:25:25.000Z,99716.53
2022-11-19T09:30:27.153Z,99722.13
2022-11-19T09:35:29.142Z,99719.75
2022-11-19T09:40:31.005Z,99737.75
2022-11-19T09:45:32.913Z,99723.69
2022-11-19T09:50:54.434Z,99728.06
2022-11-19T09:55:59.173Z,99724.25
2022-11-19T10:01:01.580Z,99723.38
2022-11-19T10:06:15.300Z,99725.84
2022-11-19T10:11:29.836Z,99728.94
2022-11-19T10:16:43.471Z,99721.25
2022-11-19T10:22:02.070Z,99717.72
2022-11-19T10:27:12.347Z,99717.03
2022-11-19T10:32:20.102Z,99719.69
2022-11-19T10:37:23.655Z,99716.19
2022-11-19T10:42:54.353Z,99720.41
2022-11-19T10:48:24.892Z,99715.81
2022-11-19T10:53:36.233Z,99697.66
2022-11-19T10:58:47.095Z,99708.22
2022-11-19T11:03:54.706Z,99702.28
2022-11-19T11:08:56.626Z,99693.22
2022-11-19T11:14:35.099Z,99691.66
2022-11-19T11:19:36.853Z,99684.97
2022-11-19T11:24:39.103Z,99678.56
2022-11-19T11:29:41.338Z,99676.09
2022-11-19T11:34:43.962Z,99674.22
2022-11-19T11:39:50.941Z,99667.66
2022-11-19T11:44:56.147Z,99666.38
2022-11-19T11:50:15.160Z,99665.41
2022-11-19T11:55:22.861Z,99663.38
2022-11-19T12:00:37.035Z,99647.84
2022-11-19T12:05:50.771Z,99650.41
2022-11-19T12:10:57.578Z,99651.25
2022-11-19T12:16:32.280Z,99643.47
2022-11-19T12:21:52.073Z,99647.75
2022-11-19T12:27:00.520Z,99639.19
2022-11-19T12:32:08.051Z,99627.97
2022-11-19T12:37:28.470Z,99615.78
2022-11-19T12:42:44.665Z,99617.56
2022-11-19T12:48:19.835Z,99617.41
2022-11-19T12:54:04.507Z,99622.50
2022-11-19T12:59:31.306Z,99627.00
2022-11-19T13:04:43.563Z,99615.66
2022-11-19T13:09:51.559Z,99618.19
2022-11-19T13:15:19.360Z,99609.63
2022-11-19T13:20:39.551Z,99607.88
2022-11-19T13:25:49.601Z,99606.88
2022-11-19T13:30:55.228Z,99596.53
2022-11-19T13:36:15.448Z,99595.56
2022-11-19T13:41:23.368Z,99596.47
2022-11-19T13:46:32.115Z,99602.44
2022-11-19T13:51:44.713Z,99599.00
2022-11-19T13:56:48.964Z,99599.91
2022-11-19T14:02:08.714Z,99612.88
2022-11-19T14:07:24.594Z,99604.31
2022-11-19T14:12:45.012Z,99607.56
2022-11-19T14:18:17.783Z,99606.63
2022-11-19T14:23:56.493Z,99609.94
2022-11-19T14:28:58.112Z,99602.16
2022-11-19T14:34:04.035Z,99595.22
2022-11-19T14:39:14.439Z,99597.88
2022-11-19T14:44:25.250Z,99608.84
2022-11-19T14:49:33.538Z,99605.34
2022-11-19T14:54:44.764Z,99610.47
2022-11-19T14:59:50.891Z,99604.41
2022-11-19T15:05:03.737Z,99603.50
2022-11-19T15:10:14.540Z,99594.91
2022-11-19T15:15:25.163Z,99595.00
2022-11-19T15:20:57.540Z,99605.97
2022-11-19T15:26:20.798Z,99605.97
2022-11-19T15:31:59.845Z,99599.66
2022-11-19T15:37:08.667Z,99600.09
2022-11-19T15:42:25.435Z,99596.41
2022-11-19T15:47:45.679Z,99607.22
2022-11-19T15:53:01.433Z,99613.38
2022-11-19T15:58:14.917Z,99612.53
2022-11-19T16:03:18.842Z,99610.56
2022-11-19T16:08:20.520Z,99607.91
2022-11-19T16:13:45.492Z,99602.88
2022-11-19T16:18:52.123Z,99603.69
2022-11-19T16:24:13.291Z,99598.53
2022-11-19T16:29:21.967Z,99589.44
2022-11-19T16:34:26.398Z,99590.91
2022-11-19T16:39:33.449Z,99589.34
2022-11-19T16:44:35.707Z,99583.53
2022-11-19T16:49:42.640Z,99577.78
2022-11-19T16:54:49.971Z,99571.50
2022-11-19T16:59:53.879Z,99581.66
2022-11-19T17:05:05.841Z,99590.00
2022-11-19T17:10:09.768Z,99591.66
2022-11-19T17:15:40.963Z,99594.75
2022-11-19T17:20:45.559Z,99595.59
2022-11-19T17:25:54.316Z,99602.31
2022-11-19T17:30:57.151Z,99612.53
2022-11-19T17:35:59.122Z,99607.81
2022-11-19T17:41:03.012Z,99617.22
2022-11-19T17:46:05.005Z,99615.28
2022-11-19T17:51:09.709Z,99619.59
2022-11-19T17:56:19.700Z,99630.44
2022-11-19T18:01:21.879Z,99630.16
2022-11-19T18:06:24.028Z,99636.06
2022-11-19T18:11:26.478Z,99635.78
2022-11-19T18:16:34.222Z,99639.56
2022-11-19T18:21:35.986Z,99629.81
2022-11-19T18:26:37.677Z,99639.53
2022-11-19T18:31:44.244Z,99638.56
2022-11-19T18:36:46.110Z,99646.25
2022-11-19T18:41:47.935Z,99644.75
2022-11-19T18:46:49.577Z,99647.28
2022-11-19T18:51:51.267Z,99646.81
2022-11-19T18:56:53.144Z,99640.09
2022-11-19T19:01:55.913Z,99647.59
2022-11-19T19:06:59.296Z,99648.56
2022-11-19T19:12:19.648Z,99651.75
2022-11-19T19:17:21.744Z,99651.03
2022-11-19T19:22:23.429Z,99652.50
2022-11-19T19:27:25.693Z,99646.28
2022-11-19T19:32:28.272Z,99655.09
2022-11-19T19:37:29.920Z,99653.38
2022-11-19T19:42:31.660Z,99655.03
2022-11-19T19:47:33.320Z,99665.66
2022-11-19T19:52:34.977Z,99658.44
2022-11-19T19:57:36.589Z,99662.66
2022-11-19T20:02:38.411Z,99662.72
2022-11-19T20:07:40.114Z,99661.22
2022-11-19T20:13:00.414Z,99665.22
2022-11-19T20:18:02.232Z,99670.34
2022-11-19T20:23:03.850Z,99675.38
2022-11-19T20:28:05.545Z,99672.91
2022-11-19T20:33:07.627Z,99674.53
2022-11-19T20:38:09.291Z,99682.44
2022-11-19T20:43:29.285Z,99684.63
2022-11-19T20:48:30.953Z,99687.84
2022-11-19T20:53:32.908Z,99685.72
2022-11-19T20:58:34.812Z,99678.41
2022-11-19T21:03:37.577Z,99685.13
2022-11-19T21:08:39.356Z,99665.16
2022-11-19T21:13:41.771Z,99671.09
2022-11-19T21:18:44.043Z,99671.22
2022-11-19T21:23:45.941Z,99675.44
2022-11-19T21:28:51.906Z,99670.03
2022-11-19T21:33:53.615Z,99669.31
2022-11-19T21:38:55.321Z,99669.72
2022-11-19T21:43:57.112Z,99667.00
2022-11-19T21:48:59.157Z,99671.38
2022-11-19T21:54:00.880Z,99666.50
2022-11-19T21:59:02.574Z,99662.09
2022-11-19T22:04:04.630Z,99652.06
2022-11-19T22:09:06.312Z,99651.88
2022-11-19T22:14:09.353Z,99656.19
2022-11-19T22:19:12.056Z,99662.84
2022-11-19T22:24:13.738Z,99650.25
2022-11-19T22:29:15.411Z,99649.84
2022-11-19T22:34:17.115Z,99645.78
2022-11-19T22:39:19.583Z,99643.84
2022-11-19T22:44:21.380Z,99641.56
2022-11-19T22:49:23.272Z,99632.91
2022-11-19T22:54:25.092Z,99634.38
2022-11-19T22:59:27.085Z,99638.31
2022-11-19T23:04:29.345Z,99628.19
2022-11-19T23:09:31.096Z,99628.16
2022-11-19T23:14:32.752Z,99628.94
2022-11-19T23:19:37.343Z,99622.56
2022-11-19T23:24:39.024Z,99619.78
2022-11-19T23:29:40.909Z,99609.13
2022-11-19T23:34:42.590Z,99618.84
2022-11-19T23:39:44.317Z,99613.66
2022-11-19T23:44:46.206Z,99612.94
2022-11-19T23:49:47.844Z,99608.88
2022-11-19T23:54:49.442Z,99605.50
2022-11-19T23:59:51.073Z,99606.66
